Latest Weather Observations for Westmere

IDV60801

Issued at 5:32 am EDT Saturday 19 October 2019 (issued every 10 minutes, with the page automatically refreshed every 10 minutes)

About weather observations | Map of weather stations | Latest weather observations for VIC | Other Formats
Station Details ID: 089112 Name: WESTMERE Lat: -37.71 Lon: 142.94 Height: 226.0 m
Data from the previous 72 hours. | See also: Recent months at Westmere
Date/Time
EDT
Temp
°C
App
Temp
°C
Dew
Point
°C
Rel
Hum
%
Delta-T
°C
Wind Press
QNH
hPa
Press
MSL
hPa
Rain since
9am
mm
Dir  Spd
km/h
Gust
km/h
Spd
kts
Gust
kts
19/05:30am 5.6 2.0 5.0 96 0.3 NW 13 17 7 9 1013.4 1013.3 3.2
19/05:00am 6.0 2.5 5.4 96 0.3 WNW 13 17 7 9 1013.2 1013.1 3.2
19/04:30am 6.3 3.2 5.7 96 0.3 WNW 11 15 6 8 1013.2 1013.1 3.2
19/04:00am 6.7 3.0 6.1 96 0.3 W 15 24 8 13 1013.3 1013.2 3.2
19/03:30am 6.2 2.8 5.8 97 0.2 WNW 13 17 7 9 1013.2 1013.1 2.4
19/03:00am 6.2 2.7 5.6 96 0.3 WNW 13 17 7 9 1013.2 1013.1 2.4
19/02:30am 6.6 3.6 6.2 97 0.2 WNW 11 15 6 8 1013.2 1013.1 2.4
19/02:00am 7.0 4.1 6.6 97 0.2 NW 11 17 6 9 1013.6 1013.5 2.4
19/01:30am 6.8 4.3 6.4 97 0.2 NW 9 13 5 7 1013.7 1013.6 2.4
19/01:00am 6.7 4.1 6.1 96 0.3 NW 9 13 5 7 1013.7 1013.6 2.4
19/12:30am 6.0 3.6 5.1 94 0.4 NW 7 9 4 5 1013.7 1013.6 2.4
19/12:00am 6.0 3.5 4.8 92 0.5 NW 7 9 4 5 1013.9 1013.9 2.4
 
Date/Time
EDT
Temp
°C
App
Temp
°C
Dew
Point
°C
Rel
Hum
%
Delta-T
°C
Wind Press
QNH
hPa
Press
MSL
hPa
Rain since
9am
mm
Dir  Spd
km/h
Gust
km/h
Spd
kts
Gust
kts
18/11:30pm 7.7 5.5 6.2 90 0.7 WNW 7 13 4 7 1014.1 1014.1 2.2
18/11:00pm 8.3 5.0 6.3 87 0.9 W 13 20 7 11 1014.1 1014.1 2.2
18/10:30pm 8.4 5.1 6.4 87 0.9 WNW 13 20 7 11 1014.0 1014.0 2.2
18/10:00pm 8.2 5.3 6.5 89 0.8 WNW 11 15 6 8 1013.9 1013.9 2.2
18/09:30pm 9.1 6.4 7.5 90 0.8 WNW 11 19 6 10 1013.8 1013.7 2.2
18/09:00pm 9.6 7.1 8.4 92 0.6 WNW 11 15 6 8 1013.7 1013.6 2.2
18/08:30pm 9.4 6.9 8.0 91 0.7 WNW 11 19 6 10 1013.3 1013.2 2.2
18/08:00pm 9.7 5.5 8.3 91 0.7 W 20 30 11 16 1012.9 1012.8 2.2
18/07:30pm 10.3 5.6 9.4 94 0.5 W 24 44 13 24 1012.6 1012.5 2.2
18/07:00pm 10.9 6.8 10.1 95 0.4 WNW 22 35 12 19 1011.9 1011.9 2.0
18/06:30pm 10.5 6.3 9.7 95 0.4 WNW 22 41 12 22 1011.6 1011.6 1.8
18/06:00pm 10.8 4.4 8.6 86 1.1 W 32 48 17 26 1011.3 1011.3 0.6
18/05:44pm 14.7 9.0 8.2 65 3.3 NW 28 48 15 26 1010.3 1010.3 0.0
18/05:30pm 15.4 8.2 7.7 60 3.9 NW 35 48 19 26 1010.2 1010.2 0.0
18/05:00pm 15.8 9.2 7.6 58 4.1 NW 32 54 17 29 1010.2 1010.2 0.0
18/04:44pm 15.8 10.0 8.1 60 3.9 NW 28 48 15 26 1010.3 1010.3 0.0
18/04:30pm 16.5 10.7 8.0 57 4.3 NW 28 39 15 21 1010.2 1010.2 0.0
18/04:00pm 15.8 9.7 6.5 54 4.6 NW 28 43 15 23 1010.4 1010.4 0.0
18/03:30pm 16.1 9.3 7.1 55 4.5 NW 32 52 17 28 1010.5 1010.5 0.0
18/03:00pm 15.6 8.8 6.9 56 4.3 NW 32 43 17 23 1011.0 1011.0 0.0
18/02:30pm 15.1 8.0 6.4 56 4.3 NW 33 50 18 27 1011.4 1011.4 0.0
18/02:00pm 17.0 9.4 7.6 54 4.8 NW 37 54 20 29 1011.4 1011.4 0.0
18/01:30pm 16.5 9.8 8.2 58 4.3 NW 33 52 18 28 1011.6 1011.6 0.0
18/01:18pm 15.2 8.6 7.7 61 3.8 NW 32 54 17 29 1011.8 1011.8 0.0
18/01:00pm 14.9 8.1 7.5 61 3.7 NW 33 46 18 25 1012.1 1012.1 0.0
18/12:30pm 13.2 7.1 6.8 65 3.1 NW 28 43 15 23 1013.0 1012.9 0.0
18/12:00pm 12.6 6.8 6.4 66 3.0 NW 26 39 14 21 1013.4 1013.3 0.0
18/11:30am 11.9 6.2 6.8 71 2.5 NNW 26 39 14 21 1013.6 1013.5 0.0
18/11:00am 12.5 6.4 6.8 68 2.8 NNW 28 37 15 20 1013.6 1013.5 0.0
18/10:30am 13.1 6.8 7.5 69 2.8 NNW 30 46 16 25 1013.6 1013.5 0.0
18/10:00am 11.3 4.7 6.2 71 2.4 NNW 30 41 16 22 1013.9 1013.9 0.0
18/09:30am 10.8 5.9 6.9 77 1.9 NNW 22 39 12 21 1014.1 1014.1 0.0
18/09:00am 10.0 5.8 7.3 83 1.3 NNE 19 30 10 16 1014.2 1014.2 4.4
18/08:30am 8.0 3.3 6.1 88 0.9 N 20 28 11 15 1014.4 1014.4 4.4
18/08:00am 6.2 1.5 5.2 93 0.4 N 19 26 10 14 1014.5 1014.5 4.4
18/07:30am 4.1 0.2 3.4 95 0.3 N 13 17 7 9 1014.5 1014.5 4.4
18/07:00am 3.2 -1.3 2.3 94 0.4 NNE 15 19 8 10 1014.2 1014.2 4.4
18/06:30am 3.7 -0.3 2.7 93 0.4 NNE 13 19 7 10 1014.2 1014.2 4.4
18/06:00am 3.4 -0.7 2.4 93 0.4 N 13 17 7 9 1014.3 1014.3 4.4
18/05:30am 3.4 -0.7 2.2 92 0.5 N 13 17 7 9 1014.4 1014.4 4.4
18/05:00am 3.2 -0.2 1.9 91 0.5 NNE 9 13 5 7 1014.5 1014.5 4.4
18/04:30am 4.6 1.0 2.8 88 0.7 N 11 15 6 8 1014.9 1014.9 4.4
18/04:00am 6.2 2.0 4.0 86 0.9 N 15 20 8 11 1015.0 1015.0 4.4
18/03:30am 6.2 2.4 4.0 86 0.9 N 13 17 7 9 1015.2 1015.2 4.4
18/03:00am 6.2 3.2 4.2 87 0.9 N 9 13 5 7 1015.5 1015.5 4.4
18/02:30am 5.5 2.0 3.3 86 0.9 N 11 13 6 7 1015.9 1015.9 4.4
18/02:00am 6.0 3.1 4.6 91 0.6 NW 9 15 5 8 1016.4 1016.4 4.4
18/01:30am 4.8 1.7 3.5 91 0.5 NW 9 11 5 6 1016.7 1016.7 4.4
18/01:00am 5.3 1.8 3.6 89 0.7 WNW 11 13 6 7 1016.6 1016.6 4.4
18/12:30am 6.3 3.4 4.6 89 0.7 WNW 9 11 5 6 1016.6 1016.6 4.4
18/12:00am 7.4 5.1 5.7 89 0.8 NNW 7 11 4 6 1016.6 1016.6 4.4
 
Date/Time
EDT
Temp
°C
App
Temp
°C
Dew
Point
°C
Rel
Hum
%
Delta-T
°C
Wind Press
QNH
hPa
Press
MSL
hPa
Rain since
9am
mm
Dir  Spd
km/h
Gust
km/h
Spd
kts
Gust
kts
17/11:30pm 7.5 5.1 5.1 85 1.1 NNW 7 11 4 6 1016.7 1016.7 4.4
17/11:00pm 7.8 5.4 5.1 83 1.2 WNW 7 9 4 5 1016.9 1016.9 4.4
17/10:30pm 7.6 5.3 5.7 88 0.9 WNW 7 9 4 5 1017.0 1017.0 4.4
17/10:00pm 8.1 6.1 6.2 88 0.9 NW 6 7 3 4 1017.2 1017.1 4.4
17/09:30pm 8.6 6.4 6.2 85 1.1 WNW 7 11 4 6 1017.0 1017.0 4.4
17/09:00pm 8.9 5.5 6.0 82 1.3 W 13 20 7 11 1016.7 1016.7 4.4
17/08:30pm 9.2 5.8 6.1 81 1.4 W 13 20 7 11 1016.3 1016.3 4.4
17/08:00pm 8.9 5.1 5.8 81 1.4 W 15 22 8 12 1015.9 1015.9 4.4
17/07:30pm 9.8 5.2 6.5 80 1.6 W 20 32 11 17 1015.6 1015.6 4.4
17/07:00pm 10.3 6.0 7.2 81 1.5 W 19 30 10 16 1015.1 1015.1 4.4
17/06:30pm 10.8 6.1 7.9 82 1.4 W 22 35 12 19 1014.6 1014.6 4.4
17/06:00pm 10.4 6.6 9.2 92 0.6 WSW 19 30 10 16 1014.2 1014.2 4.2
17/05:30pm 9.7 5.7 8.9 95 0.4 WSW 20 33 11 18 1013.9 1013.9 4.2
17/05:12pm 9.6 3.6 8.7 94 0.4 WSW 30 48 16 26 1013.8 1013.7 4.2
17/05:00pm 9.5 2.9 7.9 90 0.8 WSW 32 48 17 26 1013.7 1013.6 4.2
17/04:30pm 10.6 4.8 9.4 92 0.6 WSW 30 46 16 25 1013.3 1013.2 4.0
17/04:00pm 10.0 3.5 9.1 94 0.5 WSW 33 46 18 25 1013.0 1012.9 3.6
17/03:30pm 10.2 5.2 9.4 95 0.4 WSW 26 46 14 25 1012.5 1012.4 2.8
17/03:08pm 9.8 4.2 8.7 93 0.5 WSW 28 48 15 26 1012.5 1012.4 2.4
17/03:00pm 10.2 5.0 9.0 92 0.6 WSW 26 39 14 21 1012.3 1012.3 1.8
17/02:39pm 10.5 5.0 9.3 92 0.6 WSW 28 46 15 25 1012.3 1012.3 1.6
17/02:30pm 10.2 4.6 8.8 91 0.7 WSW 28 41 15 22 1012.3 1012.3 1.6
17/02:06pm 10.6 4.0 7.8 83 1.4 W 32 52 17 28 1011.9 1011.9 0.8
17/02:00pm 11.0 4.3 8.1 82 1.4 W 33 52 18 28 1011.7 1011.7 0.8
17/01:56pm 11.4 5.5 9.1 86 1.2 W 30 50 16 27 1011.6 1011.6 0.8
17/01:30pm 9.9 3.0 7.2 83 1.3 W 33 48 18 26 1011.6 1011.6 0.8
17/01:19pm 9.9 2.8 6.6 80 1.6 W 33 52 18 28 1011.4 1011.4 0.6
17/01:00pm 10.2 3.5 7.4 83 1.4 W 32 48 17 26 1011.4 1011.4 0.6
17/12:30pm 10.0 3.2 6.9 81 1.5 WNW 32 48 17 26 1011.4 1011.4 0.6
17/12:06pm 9.1 2.0 6.4 83 1.3 W 33 52 18 28 1011.6 1011.6 0.6
17/12:00pm 9.2 2.4 6.8 85 1.1 W 32 46 17 25 1011.5 1011.5 0.6
17/11:30am 8.6 2.4 6.2 85 1.1 W 28 44 15 24 1011.3 1011.3 0.4
17/11:00am 8.8 1.6 4.8 76 1.8 W 32 50 17 27 1010.6 1010.6 0.2
17/10:46am 10.5 3.6 4.6 67 2.7 W 30 48 16 26 1010.4 1010.4 0.0
17/10:30am 9.8 2.4 3.8 66 2.7 W 32 46 17 25 1010.3 1010.3 0.0
17/10:00am 10.0 3.5 4.8 70 2.4 W 28 43 15 23 1010.2 1010.2 0.0
17/09:32am 9.8 3.4 5.2 73 2.1 WNW 28 46 15 25 1009.9 1009.8 0.0
17/09:30am 9.9 4.0 5.7 75 1.9 WNW 26 46 14 25 1009.9 1009.8 0.0
17/09:00am 8.9 3.0 6.0 82 1.3 WNW 26 44 14 24 1009.7 1009.6 3.2
17/08:30am 8.0 2.9 6.1 88 0.9 WNW 22 33 12 18 1009.6 1009.5 3.2
17/08:00am 7.0 1.9 5.8 92 0.5 WNW 22 33 12 18 1009.5 1009.4 3.2
17/07:30am 6.1 0.8 4.9 92 0.5 WNW 22 33 12 18 1009.0 1008.9 3.2
17/07:00am 5.7 0.9 4.7 93 0.4 WNW 19 26 10 14 1008.5 1008.4 3.2
17/06:30am 5.8 1.0 4.8 93 0.4 WNW 19 28 10 15 1008.1 1008.0 3.2
17/06:00am 6.3 1.7 5.4 94 0.4 WNW 19 28 10 15 1007.7 1007.7 3.2
17/05:30am 6.2 1.5 5.3 94 0.4 WNW 19 28 10 15 1007.3 1007.3 3.2
17/05:00am 6.2 2.3 5.5 95 0.3 WNW 15 22 8 12 1007.4 1007.4 3.2
17/04:30am 6.6 2.8 5.9 95 0.3 WNW 15 24 8 13 1007.3 1007.3 2.0
17/04:00am 5.8 2.9 4.9 94 0.4 NW 9 13 5 7 1007.3 1007.3 1.8
17/03:30am 6.0 3.5 5.0 93 0.4 NNW 7 11 4 6 1007.7 1007.7 1.8
17/03:00am 6.5 3.0 5.5 93 0.5 NW 13 20 7 11 1007.9 1007.8 1.8
17/02:30am 7.6 3.3 6.9 95 0.3 NW 19 28 10 15 1008.0 1007.9 1.8
17/02:00am 7.8 4.3 7.4 97 0.2 NW 15 20 8 11 1008.2 1008.1 1.8
17/01:30am 8.1 5.5 7.7 97 0.2 NW 11 17 6 9 1008.5 1008.4 1.8
17/01:00am 8.3 4.6 7.9 97 0.2 NW 17 28 9 15 1008.7 1008.6 1.8
17/12:30am 8.7 3.8 8.3 97 0.2 WNW 24 37 13 20 1009.1 1009.0 0.6
17/12:00am 8.7 5.9 8.6 99 0.0 N 13 15 7 8 1008.7 1008.6 0.2
 
Date/Time
EDT
Temp
°C
App
Temp
°C
Dew
Point
°C
Rel
Hum
%
Delta-T
°C
Wind Press
QNH
hPa
Press
MSL
hPa
Rain since
9am
mm
Dir  Spd
km/h
Gust
km/h
Spd
kts
Gust
kts
16/11:30pm 7.2 4.4 6.9 98 0.1 N 11 15 6 8 1008.6 1008.5 0.2
16/11:00pm 6.0 3.3 5.6 97 0.2 NNE 9 13 5 7 1009.0 1008.9 0.2
16/10:30pm 5.7 3.5 5.1 96 0.3 SSW 6 7 3 4 1009.4 1009.3 0.2
16/10:00pm 6.4 5.4 5.7 95 0.3 CALM 0 0 0 0 1009.7 1009.6 0.2
16/09:30pm 6.6 4.9 5.7 94 0.4 SSW 4 6 2 3 1009.6 1009.5 0.2
16/09:00pm 8.7 7.4 7.8 94 0.4 SSW 4 6 2 3 1009.7 1009.6 0.2
16/08:30pm 9.1 7.3 7.9 92 0.6 SSW 7 9 4 5 1009.3 1009.2 0.2
16/08:00pm 10.5 8.6 9.1 91 0.7 SSW 9 13 5 7 1009.0 1008.9 0.2
16/07:30pm 11.6 9.4 9.2 85 1.2 SSW 11 17 6 9 1008.9 1008.8 0.2
16/07:00pm 13.2 9.6 10.0 81 1.7 SSW 19 24 10 13 1008.8 1008.7 0.2
16/06:30pm 14.2 12.4 9.6 74 2.4 SW 9 15 5 8 1008.3 1008.2 0.2
16/06:00pm 15.1 12.3 10.1 72 2.6 SW 15 22 8 12 1008.0 1007.9 0.2
16/05:30pm 14.9 11.2 9.3 69 2.9 SW 19 32 10 17 1007.9 1007.8 0.2
16/05:00pm 17.6 13.5 8.7 56 4.7 W 20 35 11 19 1007.6 1007.6 0.2
16/04:30pm 17.3 13.9 9.2 59 4.3 W 17 24 9 13 1007.5 1007.5 0.2
16/04:00pm 16.9 13.7 10.1 64 3.6 WSW 17 26 9 14 1008.1 1008.0 0.2
16/03:30pm 16.1 12.8 9.5 65 3.5 W 17 26 9 14 1008.5 1008.4 0.2
16/03:00pm 14.9 12.0 11.1 78 2.0 WSW 17 22 9 12 1008.9 1008.8 0.2
16/02:30pm 13.8 10.6 11.1 84 1.4 WSW 19 32 10 17 1009.3 1009.2 0.0
16/02:00pm 14.8 12.0 10.0 73 2.5 WSW 15 22 8 12 1009.2 1009.1 0.0
16/01:30pm 15.6 13.3 10.4 71 2.8 W 13 19 7 10 1009.4 1009.3 0.0
16/01:00pm 15.1 12.4 10.3 73 2.6 W 15 22 8 12 1009.5 1009.4 0.0
16/12:30pm 15.1 12.2 10.9 76 2.3 W 17 24 9 13 1009.8 1009.7 0.0
16/12:00pm 15.1 11.8 11.5 79 2.0 WSW 20 28 11 15 1010.0 1009.9 0.0
16/11:30am 15.0 12.5 11.0 77 2.1 W 15 22 8 12 1009.9 1009.8 0.0
16/11:00am 14.6 11.4 11.2 80 1.8 NNW 19 28 10 15 1010.1 1010.1 0.0
16/10:30am 13.6 10.9 11.7 88 1.0 NNW 17 24 9 13 1010.2 1010.2 0.0
16/10:00am 12.9 9.9 12.0 94 0.5 NNW 19 26 10 14 1010.3 1010.3 0.0
16/09:30am 12.5 10.1 12.5 100 0.0 N 17 22 9 12 1010.3 1010.3 0.0
16/09:00am 11.9 10.0 11.9 100 0.0 N 13 19 7 10 1010.3 1010.3 0.0
16/08:30am 11.0 10.6 11.0 100 0.0 N 4 4 2 2 1010.8 1010.8 0.0
16/08:00am 10.4 10.6 10.4 100 0.0 CALM 0 2 0 1 1010.8 1010.8 0.0
16/07:30am 10.2 9.5 10.2 100 0.0 NE 4 7 2 4 1010.3 1010.3 0.0
16/07:00am 10.0 9.3 10.0 100 0.0 NE 4 4 2 2 1010.5 1010.5 0.0
16/06:30am 10.0 8.9 10.0 100 0.0 NE 6 6 3 3 1010.5 1010.5 0.0
16/06:00am 9.9 9.5 9.9 100 0.0 NE 2 4 1 2 1010.9 1010.9 0.0

Other formats

Comma delimited format used in spreadsheet applications
http://www.bom.gov.au/fwo/IDV60801/IDV60801.95840.axf

JavaScript Object Notation format (JSON) in row-major order
http://www.bom.gov.au/fwo/IDV60801/IDV60801.95840.json

Data quality

Most of these data are generated automatically and are frequently updated. Quality checks on data are not normally performed. It is possible for incorrect values to appear. Refer to information at About Latest Weather Observations and please check the disclaimer before using these data.